Time;durP1;ratioP1;P1;durP2;ratioP2;P2;SDS_P1;SDS_P2;PMS_P1;PMS_P2;Temp;Humidity;BMP_temperature;BMP_pressure;BME280_temperature;BME280_humidity;BME280_pressure;Samples;Min_cycle;Max_cycle;Signal;HPM_P1;HPM_P2
2021/01/28 00:01:29;;;;;;;31.50;19.57;;;4.50;99.90;;;;;;5046429;28;20488;-48
2021/01/28 00:03:56;;;;;;;32.10;19.40;;;4.50;99.90;;;;;;5045184;28;20556;-48
2021/01/28 00:06:23;;;;;;;26.67;18.20;;;4.60;99.90;;;;;;5045340;28;20830;-48
2021/01/28 00:08:50;;;;;;;29.37;18.77;;;4.60;99.90;;;;;;5045896;28;20892;-49
2021/01/28 00:11:18;;;;;;;26.73;18.87;;;4.60;99.90;;;;;;5050881;28;20288;-48
2021/01/28 00:13:46;;;;;;;27.80;17.80;;;4.60;99.90;;;;;;5050298;28;20556;-49
2021/01/28 00:16:14;;;;;;;26.23;17.93;;;4.60;99.90;;;;;;5050780;28;20243;-48
2021/01/28 00:18:41;;;;;;;29.87;19.47;;;4.60;99.90;;;;;;5051224;28;20469;-48
2021/01/28 00:21:09;;;;;;;28.73;18.40;;;4.60;99.90;;;;;;5050678;28;20473;-48
2021/01/28 00:23:37;;;;;;;28.27;18.40;;;4.60;99.90;;;;;;5050389;28;21027;-48
2021/01/28 00:26:04;;;;;;;27.70;18.23;;;4.60;99.90;;;;;;5050323;28;20473;-48
2021/01/28 00:28:31;;;;;;;26.73;18.67;;;4.60;99.90;;;;;;5050392;28;20532;-48
2021/01/28 00:30:59;;;;;;;27.97;17.73;;;4.50;99.90;;;;;;5041053;28;20493;-48
2021/01/28 00:33:27;;;;;;;27.43;17.70;;;4.60;99.90;;;;;;5030699;28;20479;-48
2021/01/28 00:35:57;;;;;;;27.53;18.07;;;4.60;99.90;;;;;;5029930;28;20589;-49
2021/01/28 00:38:28;;;;;;;25.90;17.23;;;4.60;99.90;;;;;;5030639;28;20493;-49
2021/01/28 00:40:57;;;;;;;27.37;16.80;;;4.60;99.90;;;;;;5040075;28;20508;-48
2021/01/28 00:43:25;;;;;;;29.23;16.53;;;4.50;99.90;;;;;;5032306;28;20474;-48
2021/01/28 00:45:53;;;;;;;26.10;16.40;;;4.50;99.90;;;;;;5049979;28;20241;-48
2021/01/28 00:48:24;;;;;;;28.80;17.13;;;4.50;99.90;;;;;;5050042;28;20652;-48
2021/01/28 00:50:56;;;;;;;24.13;15.53;;;4.50;99.90;;;;;;5050494;28;20476;-48
2021/01/28 00:53:24;;;;;;;26.20;15.17;;;4.60;99.90;;;;;;5050268;28;20470;-48
2021/01/28 00:55:52;;;;;;;26.23;15.83;;;4.60;99.90;;;;;;5047942;28;20480;-48
2021/01/28 00:58:31;;;;;;;24.70;14.83;;;4.60;99.90;;;;;;5031869;28;20565;-48
2021/01/28 01:01:01;;;;;;;26.20;14.63;;;4.60;99.90;;;;;;5048256;28;20477;-49
2021/01/28 01:03:29;;;;;;;23.77;14.93;;;4.60;99.90;;;;;;5048124;28;21070;-48
2021/01/28 01:05:57;;;;;;;21.60;15.13;;;4.60;99.90;;;;;;5048064;28;20474;-48
2021/01/28 01:08:27;;;;;;;20.93;14.40;;;4.60;99.90;;;;;;5049586;28;20240;-50
2021/01/28 01:11:03;;;;;;;30.47;15.60;;;4.60;99.90;;;;;;5031432;28;20528;-48
2021/01/28 01:13:33;;;;;;;23.30;13.43;;;4.60;99.90;;;;;;5049219;28;21059;-48
2021/01/28 01:16:13;;;;;;;19.60;13.60;;;4.60;99.90;;;;;;5047686;28;20501;-48
2021/01/28 01:18:47;;;;;;;17.27;13.60;;;4.60;99.90;;;;;;5047817;28;20470;-48
2021/01/28 01:21:16;;;;;;;20.53;14.13;;;4.60;99.90;;;;;;5047308;28;20554;-48
2021/01/28 01:23:49;;;;;;;20.53;14.40;;;4.60;99.90;;;;;;5047322;28;21019;-47
2021/01/28 01:26:19;;;;;;;20.50;15.60;;;4.50;99.90;;;;;;5031238;28;20686;-49
2021/01/28 01:28:49;;;;;;;22.13;15.00;;;4.50;99.90;;;;;;5047979;28;20239;-48
2021/01/28 01:31:30;;;;;;;19.90;15.43;;;4.50;99.90;;;;;;5031312;28;20941;-48
2021/01/28 01:33:59;;;;;;;19.90;15.37;;;4.50;99.90;;;;;;5048527;28;20935;-48
2021/01/28 01:36:29;;;;;;;20.93;16.27;;;4.50;99.90;;;;;;5047551;28;20846;-48
2021/01/28 01:39:01;;;;;;;19.00;15.23;;;4.40;99.90;;;;;;5047728;28;20229;-48
2021/01/28 01:41:41;;;;;;;20.57;15.47;;;4.40;99.90;;;;;;5031001;28;20466;-48
2021/01/28 01:44:14;;;;;;;20.37;15.50;;;4.40;99.90;;;;;;5030420;28;20235;-48
2021/01/28 01:46:46;;;;;;;18.90;13.97;;;4.30;99.90;;;;;;5030820;28;20484;-48
2021/01/28 01:49:22;;;;;;;20.03;13.80;;;4.20;99.90;;;;;;5031072;28;20474;-48
2021/01/28 01:51:51;;;;;;;19.17;13.63;;;4.00;99.90;;;;;;5048895;28;20713;-48
2021/01/28 01:54:39;;;;;;;21.73;14.10;;;4.00;99.90;;;;;;5046335;28;20938;-49
2021/01/28 01:57:16;;;;;;;18.83;13.67;;;3.90;99.90;;;;;;5048418;28;20573;-48
2021/01/28 02:00:06;;;;;;;18.20;13.47;;;3.80;99.90;;;;;;5049227;28;20885;-48
2021/01/28 02:03:08;;;;;;;15.90;12.80;;;3.80;99.90;;;;;;5044240;28;20611;-49
2021/01/28 02:06:06;;;;;;;15.97;13.00;;;3.70;99.90;;;;;;5042369;28;20481;-48
2021/01/28 02:08:57;;;;;;;16.70;12.67;;;3.70;99.90;;;;;;5048279;28;20478;-48
2021/01/28 02:11:54;;;;;;;17.83;13.13;;;3.70;99.90;;;;;;5038729;28;20490;-49
2021/01/28 02:14:37;;;;;;;17.97;12.83;;;3.60;99.90;;;;;;5017876;28;20479;-49
2021/01/28 02:17:16;;;;;;;17.33;12.30;;;3.60;99.90;;;;;;5027509;28;20284;-49
2021/01/28 02:20:58;;;;;;;19.83;13.17;;;3.60;99.90;;;;;;5027849;28;20487;-49
2021/01/28 02:23:51;;;;;;;19.03;12.87;;;3.50;99.90;;;;;;5009852;28;20959;-48
2021/01/28 02:26:28;;;;;;;19.23;12.77;;;3.40;99.90;;;;;;5026741;28;20486;-48
2021/01/28 02:29:01;;;;;;;16.47;11.40;;;3.40;99.90;;;;;;5023170;28;20509;-49
2021/01/28 02:31:30;;;;;;;18.80;13.40;;;3.50;99.90;;;;;;5023630;28;20484;-48
2021/01/28 02:34:01;;;;;;;20.27;14.43;;;3.70;99.90;;;;;;5005876;28;20567;-48
2021/01/28 02:36:40;;;;;;;21.50;12.10;;;3.50;99.90;;;;;;5023318;28;20713;-48
2021/01/28 02:39:37;;;;;;;24.83;13.53;;;3.60;99.90;;;;;;4990792;28;20886;-48
2021/01/28 02:42:33;;;;;;;24.00;14.63;;;4.20;99.90;;;;;;5024062;28;21007;-49
2021/01/28 02:45:10;;;;;;;26.03;15.03;;;4.30;99.90;;;;;;5009287;28;20483;-49
2021/01/28 02:47:59;;;;;;;23.93;14.43;;;4.10;99.90;;;;;;5027353;28;20621;-49
2021/01/28 02:50:38;;;;;;;23.73;14.47;;;4.00;99.90;;;;;;5010377;28;20500;-49
2021/01/28 02:53:08;;;;;;;27.23;15.80;;;4.30;99.90;;;;;;5026403;28;20830;-49
2021/01/28 02:55:43;;;;;;;23.00;14.93;;;4.30;99.90;;;;;;5029099;28;20518;-48
2021/01/28 02:58:11;;;;;;;23.93;14.97;;;4.10;99.90;;;;;;5031913;28;20501;-49
2021/01/28 03:01:02;;;;;;;22.00;14.60;;;4.10;99.90;;;;;;5026949;28;20566;-48
2021/01/28 03:03:30;;;;;;;21.20;13.20;;;3.80;99.90;;;;;;5033594;28;20486;-48
2021/01/28 03:05:58;;;;;;;17.53;10.93;;;3.70;99.90;;;;;;5027340;28;21168;-48
2021/01/28 03:08:26;;;;;;;19.40;12.20;;;3.80;99.90;;;;;;5042809;28;20988;-48
2021/01/28 03:11:14;;;;;;;18.03;11.13;;;3.80;99.90;;;;;;5026970;28;20473;-49
2021/01/28 03:13:43;;;;;;;17.37;11.43;;;3.90;99.90;;;;;;5030809;28;20481;-48
2021/01/28 03:16:40;;;;;;;18.30;11.33;;;3.90;99.90;;;;;;5040076;28;20513;-48
2021/01/28 03:19:12;;;;;;;19.60;12.27;;;4.10;99.90;;;;;;5046137;28;20496;-49
2021/01/28 03:21:41;;;;;;;19.63;12.57;;;4.00;99.90;;;;;;5046655;28;20859;-48
2021/01/28 03:24:21;;;;;;;19.73;11.53;;;4.00;99.90;;;;;;5046028;28;20504;-48
2021/01/28 03:27:00;;;;;;;21.40;11.60;;;4.00;99.90;;;;;;5045793;28;20480;-49
2021/01/28 03:29:29;;;;;;;17.67;10.73;;;3.90;99.90;;;;;;5047005;28;20493;-48
2021/01/28 03:31:57;;;;;;;21.60;11.27;;;3.90;99.90;;;;;;5029140;28;20476;-49
2021/01/28 03:34:26;;;;;;;18.83;10.77;;;4.00;99.90;;;;;;5028604;28;20513;-48
2021/01/28 03:36:54;;;;;;;21.30;11.90;;;3.90;99.90;;;;;;5028902;28;20473;-49
2021/01/28 03:39:25;;;;;;;22.33;11.97;;;4.00;99.90;;;;;;5029126;28;20482;-48
2021/01/28 03:41:54;;;;;;;23.27;11.83;;;4.00;99.90;;;;;;5029401;28;20530;-48
2021/01/28 03:44:22;;;;;;;20.77;12.13;;;3.90;99.90;;;;;;5046769;28;20584;-48
2021/01/28 03:46:52;;;;;;;19.77;10.97;;;3.80;99.90;;;;;;5050945;28;20810;-48
2021/01/28 03:49:28;;;;;;;15.67;10.43;;;3.70;99.90;;;;;;5049283;28;20519;-48
2021/01/28 03:52:06;;;;;;;19.30;11.53;;;3.70;99.90;;;;;;5050220;28;20477;-49
2021/01/28 03:55:05;;;;;;;15.73;9.27;;;3.50;99.90;;;;;;5030023;28;20481;-48
2021/01/28 03:57:40;;;;;;;17.90;10.53;;;3.60;99.90;;;;;;5047858;28;20540;-48
2021/01/28 04:00:15;;;;;;;18.73;12.03;;;3.40;99.90;;;;;;5050395;28;20486;-48
2021/01/28 04:02:46;;;;;;;15.43;9.80;;;3.20;99.90;;;;;;5050415;28;20474;-48
2021/01/28 04:05:36;;;;;;;18.37;9.87;;;3.30;99.90;;;;;;5050339;28;20471;-48
2021/01/28 04:08:24;;;;;;;15.93;9.40;;;3.20;99.90;;;;;;5050208;28;20490;-48
2021/01/28 04:11:09;;;;;;;15.87;8.97;;;3.20;99.90;;;;;;5051087;28;20484;-48
2021/01/28 04:13:42;;;;;;;18.70;11.27;;;2.90;99.90;;;;;;5032554;28;21027;-48
2021/01/28 04:16:15;;;;;;;15.33;9.43;;;2.60;99.90;;;;;;5048975;28;20880;-48
2021/01/28 04:18:44;;;;;;;15.93;8.57;;;2.60;99.90;;;;;;5048993;28;20472;-49
2021/01/28 04:21:33;;;;;;;18.27;10.40;;;2.70;99.90;;;;;;5049268;28;20481;-48
2021/01/28 04:24:02;;;;;;;16.67;9.07;;;3.00;99.90;;;;;;5048703;28;20561;-48
2021/01/28 04:26:44;;;;;;;17.77;9.30;;;3.00;99.90;;;;;;5031115;28;20471;-48
2021/01/28 04:29:12;;;;;;;18.13;10.63;;;3.20;99.90;;;;;;5032271;28;20486;-48
2021/01/28 04:31:58;;;;;;;14.97;8.90;;;3.20;99.90;;;;;;5032613;28;20477;-49
2021/01/28 04:34:46;;;;;;;16.23;8.27;;;2.80;99.90;;;;;;5048368;28;20462;-49
2021/01/28 04:37:19;;;;;;;16.87;9.57;;;3.00;99.90;;;;;;5032186;28;20499;-49
2021/01/28 04:40:07;;;;;;;14.50;8.67;;;3.10;99.90;;;;;;5032567;28;20478;-48
2021/01/28 04:42:43;;;;;;;13.50;8.23;;;2.70;99.90;;;;;;5050642;28;20466;-48
2021/01/28 04:45:19;;;;;;;15.63;9.20;;;2.70;99.90;;;;;;5048165;28;20497;-48
2021/01/28 04:47:54;;;;;;;14.27;8.77;;;2.60;99.90;;;;;;5031414;28;21062;-48
2021/01/28 04:51:03;;;;;;;13.20;8.67;;;2.40;99.90;;;;;;4989857;28;20484;-48
2021/01/28 04:53:41;;;;;;;14.33;8.60;;;2.30;99.90;;;;;;4984721;28;20465;-50
2021/01/28 04:56:21;;;;;;;13.03;8.40;;;2.30;99.90;;;;;;5024020;28;20553;-48
2021/01/28 04:59:28;;;;;;;12.10;8.17;;;2.40;99.90;;;;;;5046281;28;20465;-49
2021/01/28 05:01:57;;;;;;;12.93;8.03;;;2.30;99.90;;;;;;5065596;28;20479;-48
2021/01/28 05:04:52;;;;;;;10.57;7.97;;;2.20;99.90;;;;;;5049167;28;20541;-50
2021/01/28 05:07:34;;;;;;;10.90;8.03;;;2.00;99.90;;;;;;5065345;28;20471;-49
2021/01/28 05:10:44;;;;;;;13.63;7.87;;;2.00;99.90;;;;;;5049301;28;21023;-49
2021/01/28 05:13:48;;;;;;;9.97;7.40;;;2.00;99.90;;;;;;5033488;28;20467;-48
2021/01/28 05:16:50;;;;;;;13.73;7.30;;;2.00;99.90;;;;;;5014860;28;20970;-49
2021/01/28 05:19:45;;;;;;;10.60;7.70;;;1.90;99.90;;;;;;5049370;28;20483;-48
2021/01/28 05:22:39;;;;;;;8.80;7.13;;;2.00;99.90;;;;;;5037893;28;20466;-50
2021/01/28 05:25:31;;;;;;;10.23;7.30;;;1.90;99.90;;;;;;5010455;28;20476;-51
2021/01/28 05:28:36;;;;;;;9.13;7.67;;;1.90;99.90;;;;;;5011412;28;20479;-48
2021/01/28 05:31:32;;;;;;;12.13;9.20;;;2.00;99.90;;;;;;5032372;28;20817;-48
2021/01/28 05:34:26;;;;;;;9.20;7.10;;;1.90;99.90;;;;;;5048527;28;20478;-48
2021/01/28 05:37:24;;;;;;;8.47;7.20;;;1.90;99.90;;;;;;5048023;28;20470;-48
2021/01/28 05:40:18;;;;;;;8.27;6.37;;;1.80;99.90;;;;;;5049416;28;20470;-48
2021/01/28 05:42:59;;;;;;;7.40;6.47;;;1.70;99.90;;;;;;5047516;28;20479;-48
2021/01/28 05:45:36;;;;;;;7.83;6.70;;;1.70;99.90;;;;;;5030118;28;20486;-48
2021/01/28 05:48:29;;;;;;;7.57;6.40;;;1.70;99.90;;;;;;5046472;28;20487;-49
2021/01/28 05:51:41;;;;;;;12.63;7.87;;;1.80;99.90;;;;;;5005204;28;20474;-50
2021/01/28 05:54:19;;;;;;;10.70;8.70;;;2.60;99.90;;;;;;5026954;28;20468;-48
2021/01/28 05:57:08;;;;;;;9.60;7.83;;;2.40;99.90;;;;;;5024193;28;20567;-48
2021/01/28 05:59:54;;;;;;;7.83;7.03;;;2.30;99.90;;;;;;5427170;23;20978;-49
2021/01/28 06:02:48;;;;;;;8.40;6.33;;;2.00;99.90;;;;;;4981742;28;20478;-48
2021/01/28 06:05:58;;;;;;;8.17;6.47;;;1.90;99.90;;;;;;4970011;28;20844;-49
2021/01/28 06:08:57;;;;;;;8.03;6.63;;;1.70;99.90;;;;;;4968873;28;20474;-48
2021/01/28 06:12:21;;;;;;;7.63;6.03;;;1.70;99.90;;;;;;4985321;28;21027;-48
2021/01/28 06:15:10;;;;;;;11.57;6.63;;;1.60;99.90;;;;;;4969696;28;20471;-48
2021/01/28 06:18:40;;;;;;;9.57;7.40;;;1.90;99.90;;;;;;4984755;28;21063;-49
2021/01/28 06:21:57;;;;;;;13.47;8.87;;;2.10;99.90;;;;;;4985024;28;20965;-48
2021/01/28 06:25:26;;;;;;;17.47;10.90;;;2.40;99.90;;;;;;4927869;28;20476;-48
2021/01/28 06:28:30;;;;;;;17.90;10.87;;;2.80;99.90;;;;;;4965111;28;20467;-48
2021/01/28 06:31:26;;;;;;;22.77;11.27;;;2.90;99.90;;;;;;4954760;28;20505;-48
2021/01/28 06:34:40;;;;;;;21.07;11.97;;;3.20;99.90;;;;;;4969545;28;20474;-48
2021/01/28 06:37:42;;;;;;;19.97;12.00;;;3.10;99.90;;;;;;4991074;28;20570;-49
2021/01/28 06:40:45;;;;;;;22.87;13.47;;;3.20;99.90;;;;;;4952730;28;20576;-48
2021/01/28 06:43:54;;;;;;;21.27;11.90;;;3.20;99.90;;;;;;4969222;28;20475;-49
2021/01/28 06:47:06;;;;;;;21.50;13.10;;;3.10;99.90;;;;;;4966394;28;20482;-48
2021/01/28 06:50:14;;;;;;;23.60;13.27;;;3.10;99.90;;;;;;4952676;28;20872;-48
2021/01/28 06:53:03;;;;;;;22.27;14.43;;;3.30;99.90;;;;;;4972185;28;20464;-48
2021/01/28 06:55:58;;;;;;;24.17;14.00;;;2.90;99.90;;;;;;4963178;28;20631;-49
2021/01/28 06:59:03;;;;;;;23.27;12.93;;;3.10;99.90;;;;;;4963470;28;20795;-48
2021/01/28 07:01:40;;;;;;;24.63;15.50;;;3.10;99.90;;;;;;4968520;28;20477;-49
2021/01/28 07:04:36;;;;;;;21.80;13.60;;;2.90;99.90;;;;;;4967413;28;20469;-49
2021/01/28 07:07:14;;;;;;;23.93;14.20;;;2.20;99.90;;;;;;4977583;28;20477;-49
2021/01/28 07:10:07;;;;;;;18.60;12.67;;;2.00;99.90;;;;;;4958729;28;20498;-48
2021/01/28 07:12:54;;;;;;;21.07;12.10;;;1.80;99.90;;;;;;4983164;28;20484;-49
2021/01/28 07:15:46;;;;;;;18.40;12.73;;;1.80;99.90;;;;;;4969978;28;20548;-48
2021/01/28 07:18:40;;;;;;;18.00;11.00;;;1.70;99.90;;;;;;4968364;28;20813;-48
2021/01/28 07:21:27;;;;;;;16.60;11.53;;;1.70;99.90;;;;;;4969865;28;20508;-48
2021/01/28 07:24:09;;;;;;;14.33;11.20;;;1.60;99.90;;;;;;4984517;28;20844;-50
2021/01/28 07:26:51;;;;;;;13.17;9.80;;;1.50;99.90;;;;;;4969814;28;20511;-48
2021/01/28 07:29:54;;;;;;;14.67;11.30;;;1.50;99.90;;;;;;4970081;28;20485;-47
2021/01/28 07:32:52;;;;;;;13.97;9.63;;;1.50;99.90;;;;;;4970036;28;20477;-47
2021/01/28 07:35:47;;;;;;;12.57;9.77;;;1.50;99.90;;;;;;4964662;28;20501;-48
2021/01/28 07:38:55;;;;;;;14.67;10.07;;;1.50;99.90;;;;;;4928365;29;20476;-49
2021/01/28 07:41:56;;;;;;;11.47;9.33;;;1.50;99.90;;;;;;4929262;29;20479;-48
2021/01/28 07:44:50;;;;;;;9.67;8.00;;;1.40;99.90;;;;;;4963470;28;20482;-47
2021/01/28 07:47:59;;;;;;;10.10;8.03;;;1.30;99.90;;;;;;4967547;28;21121;-47
2021/01/28 07:50:47;;;;;;;11.70;8.33;;;1.40;99.90;;;;;;4969422;28;20477;-48
2021/01/28 07:53:46;;;;;;;12.37;9.10;;;1.60;99.90;;;;;;4968733;28;20975;-48
2021/01/28 07:56:46;;;;;;;12.47;9.67;;;1.60;99.90;;;;;;4964246;28;20870;-49
2021/01/28 07:59:20;;;;;;;12.97;8.90;;;1.50;99.90;;;;;;4949839;28;20666;-48
2021/01/28 08:01:52;;;;;;;14.13;9.40;;;1.60;99.90;;;;;;4968461;28;20550;-48
2021/01/28 08:04:33;;;;;;;15.93;10.50;;;1.80;99.90;;;;;;4968368;28;20506;-49
2021/01/28 08:07:06;;;;;;;14.90;10.53;;;1.90;99.90;;;;;;4969452;28;21060;-48
2021/01/28 08:09:46;;;;;;;16.90;10.80;;;1.70;99.90;;;;;;4950581;28;20486;-48
2021/01/28 08:12:25;;;;;;;12.53;10.13;;;1.70;99.90;;;;;;4950884;28;20470;-47
2021/01/28 08:14:53;;;;;;;13.53;9.90;;;1.60;99.90;;;;;;4949966;28;20484;-48
2021/01/28 08:17:31;;;;;;;13.07;10.23;;;1.50;99.90;;;;;;4950733;28;20498;-48
2021/01/28 08:20:18;;;;;;;12.70;9.50;;;1.40;99.90;;;;;;4960302;28;20554;-47
2021/01/28 08:22:57;;;;;;;12.40;8.67;;;1.40;99.90;;;;;;4969961;28;20501;-49
2021/01/28 08:25:33;;;;;;;12.93;8.57;;;1.50;99.90;;;;;;4950093;28;20488;-47
2021/01/28 08:28:15;;;;;;;10.47;9.23;;;1.70;99.90;;;;;;4950576;28;20562;-48
2021/01/28 08:30:44;;;;;;;10.90;8.80;;;1.70;99.90;;;;;;4950301;28;20471;-48
2021/01/28 08:33:21;;;;;;;12.27;8.77;;;1.70;99.90;;;;;;4953616;28;20482;-48
2021/01/28 08:35:54;;;;;;;9.80;8.30;;;1.70;99.90;;;;;;4953262;28;20542;-47
2021/01/28 08:38:27;;;;;;;9.87;8.83;;;1.70;99.90;;;;;;4953260;28;20490;-48
2021/01/28 08:41:04;;;;;;;17.00;8.93;;;1.70;99.90;;;;;;4954089;28;20534;-48
2021/01/28 08:43:32;;;;;;;10.67;9.03;;;1.90;99.90;;;;;;4953622;28;20480;-48
2021/01/28 08:46:07;;;;;;;10.03;8.57;;;1.80;99.90;;;;;;4965057;28;20471;-47
2021/01/28 08:48:38;;;;;;;13.30;9.47;;;2.00;99.90;;;;;;4971645;28;20470;-47
2021/01/28 08:51:17;;;;;;;11.70;9.60;;;1.90;99.90;;;;;;4971257;28;21176;-48
2021/01/28 08:53:55;;;;;;;12.03;9.17;;;2.10;99.90;;;;;;4972305;28;20817;-48
2021/01/28 08:56:31;;;;;;;9.97;8.83;;;2.00;99.90;;;;;;4972362;28;20494;-48
2021/01/28 08:59:04;;;;;;;10.03;8.63;;;1.90;99.90;;;;;;4972502;28;20791;-47
2021/01/28 09:01:38;;;;;;;10.53;8.73;;;1.90;99.90;;;;;;4972785;28;20478;-48
2021/01/28 09:04:11;;;;;;;9.60;8.60;;;1.90;99.90;;;;;;4971869;28;20514;-49
2021/01/28 09:06:48;;;;;;;9.57;8.33;;;1.90;99.90;;;;;;4971300;28;20478;-48
2021/01/28 09:09:24;;;;;;;9.47;8.40;;;2.00;99.90;;;;;;4972464;28;20503;-48
2021/01/28 09:12:14;;;;;;;10.67;9.03;;;2.20;99.90;;;;;;4972328;28;20510;-48
2021/01/28 09:14:42;;;;;;;11.23;9.90;;;2.30;99.90;;;;;;4972093;28;20502;-47
2021/01/28 09:17:23;;;;;;;13.10;9.83;;;2.60;99.90;;;;;;4972115;28;20485;-48
2021/01/28 09:19:57;;;;;;;12.60;10.53;;;2.70;99.90;;;;;;4972087;28;20497;-48
2021/01/28 09:22:32;;;;;;;13.30;10.70;;;2.90;99.90;;;;;;4971658;28;20573;-48
2021/01/28 09:25:02;;;;;;;13.27;11.00;;;3.10;99.90;;;;;;4970657;28;21353;-48
2021/01/28 09:27:36;;;;;;;14.60;11.10;;;3.10;99.90;;;;;;4972235;28;20571;-48
2021/01/28 09:30:23;;;;;;;12.47;10.43;;;3.30;99.90;;;;;;4972159;28;20490;-49
2021/01/28 09:32:52;;;;;;;12.30;10.40;;;3.30;99.90;;;;;;4971867;28;20505;-48
2021/01/28 09:35:23;;;;;;;11.03;9.13;;;3.40;99.90;;;;;;4971428;28;21014;-49
2021/01/28 09:38:06;;;;;;;12.17;9.57;;;3.30;99.90;;;;;;4972017;28;20548;-48
2021/01/28 09:40:37;;;;;;;10.67;9.00;;;3.20;99.90;;;;;;4972224;28;20491;-48
2021/01/28 09:43:34;;;;;;;11.10;9.10;;;3.00;99.90;;;;;;4971541;28;20477;-49
2021/01/28 09:46:10;;;;;;;10.80;9.10;;;2.90;99.90;;;;;;4927054;28;20513;-49
2021/01/28 09:48:38;;;;;;;11.57;8.97;;;2.90;99.90;;;;;;4967646;28;20466;-47
2021/01/28 09:51:08;;;;;;;11.33;8.50;;;2.90;99.90;;;;;;4986458;28;20480;-48
2021/01/28 09:53:37;;;;;;;10.57;9.10;;;2.90;99.90;;;;;;4983176;28;20586;-48
2021/01/28 09:56:05;;;;;;;11.00;9.30;;;3.10;99.90;;;;;;4960326;28;20478;-48
2021/01/28 09:58:35;;;;;;;11.23;9.10;;;3.10;99.90;;;;;;4971475;28;20486;-49
2021/01/28 10:01:05;;;;;;;10.60;9.17;;;3.10;99.90;;;;;;4971237;28;20998;-48
2021/01/28 10:03:34;;;;;;;13.23;9.73;;;3.00;99.90;;;;;;4971018;28;20481;-49
2021/01/28 10:06:02;;;;;;;11.87;9.23;;;2.90;99.90;;;;;;4970702;28;20480;-48
2021/01/28 10:08:30;;;;;;;11.67;9.23;;;2.80;99.90;;;;;;4971340;28;20483;-48
2021/01/28 10:11:01;;;;;;;11.87;9.40;;;2.90;99.90;;;;;;4971252;28;21414;-47
2021/01/28 10:13:29;;;;;;;11.93;9.33;;;2.90;99.90;;;;;;4971057;28;20931;-49
2021/01/28 10:15:57;;;;;;;12.50;10.23;;;2.90;99.90;;;;;;4971013;28;21000;-49
2021/01/28 10:18:25;;;;;;;13.13;10.30;;;2.80;99.90;;;;;;4971043;28;20561;-51
2021/01/28 10:20:53;;;;;;;12.80;9.67;;;2.80;99.90;;;;;;4971325;28;20477;-48
2021/01/28 10:23:24;;;;;;;12.97;10.40;;;2.80;99.90;;;;;;4970620;28;20497;-48
2021/01/28 10:25:51;;;;;;;11.83;10.07;;;2.90;99.90;;;;;;4971267;28;20895;-47
2021/01/28 10:28:20;;;;;;;12.87;10.10;;;2.90;99.90;;;;;;4970015;28;20480;-48
2021/01/28 10:30:51;;;;;;;9.47;8.47;;;3.00;99.90;;;;;;4947908;28;20476;-48
2021/01/28 10:33:18;;;;;;;10.60;8.47;;;2.90;99.90;;;;;;4948805;28;20533;-49
2021/01/28 10:35:46;;;;;;;8.97;8.03;;;3.00;99.90;;;;;;4947639;28;21380;-48
2021/01/28 10:38:14;;;;;;;10.47;8.80;;;3.00;99.90;;;;;;4950014;28;20533;-48
2021/01/28 10:40:41;;;;;;;10.13;8.23;;;3.00;99.90;;;;;;4951537;28;20463;-48
2021/01/28 10:43:09;;;;;;;8.73;7.73;;;2.90;99.90;;;;;;4967734;28;20931;-48
2021/01/28 10:45:41;;;;;;;9.00;7.37;;;2.80;99.90;;;;;;4965096;28;21211;-48
2021/01/28 10:48:10;;;;;;;9.07;7.60;;;2.80;99.90;;;;;;4968815;28;20559;-48
2021/01/28 10:50:38;;;;;;;10.03;7.33;;;2.80;99.90;;;;;;4969652;28;20557;-48
2021/01/28 10:53:07;;;;;;;8.97;7.40;;;2.70;99.90;;;;;;4969182;28;20558;-48
2021/01/28 10:55:35;;;;;;;8.97;7.80;;;2.70;99.90;;;;;;4968601;28;20548;-48
2021/01/28 10:58:03;;;;;;;12.10;7.90;;;2.60;99.90;;;;;;4969899;28;20478;-49
2021/01/28 11:00:32;;;;;;;9.53;7.57;;;2.70;99.90;;;;;;4969950;28;20507;-47
2021/01/28 11:03:01;;;;;;;10.07;7.80;;;2.80;99.90;;;;;;4970257;28;20595;-48
2021/01/28 11:05:36;;;;;;;9.57;8.07;;;2.80;99.90;;;;;;4969833;28;20554;-49
2021/01/28 11:08:06;;;;;;;8.67;7.37;;;2.80;99.90;;;;;;4970224;28;20486;-48
2021/01/28 11:10:34;;;;;;;12.07;8.10;;;2.90;99.90;;;;;;4970011;28;20487;-48
2021/01/28 11:13:02;;;;;;;10.63;7.97;;;2.90;99.90;;;;;;4969474;28;20478;-48
2021/01/28 11:15:33;;;;;;;10.70;8.50;;;2.70;99.90;;;;;;4964801;28;20466;-48
2021/01/28 11:18:02;;;;;;;10.50;8.60;;;2.50;99.90;;;;;;4967319;28;20483;-48
2021/01/28 11:20:31;;;;;;;9.93;7.97;;;2.50;99.90;;;;;;4969124;28;20478;-48
2021/01/28 11:22:59;;;;;;;10.47;8.50;;;2.50;99.90;;;;;;4969564;28;20486;-48
2021/01/28 11:25:28;;;;;;;12.17;7.37;;;2.50;99.90;;;;;;4967485;28;20853;-48
2021/01/28 11:27:56;;;;;;;9.47;7.30;;;2.50;99.90;;;;;;4967200;28;20584;-49
2021/01/28 11:30:26;;;;;;;8.80;7.10;;;2.50;99.90;;;;;;4967669;28;20486;-48
2021/01/28 11:32:59;;;;;;;9.57;7.20;;;2.50;99.90;;;;;;4968131;28;20492;-48
2021/01/28 11:35:32;;;;;;;7.87;6.37;;;2.60;99.90;;;;;;4967773;28;20475;-50
2021/01/28 11:38:01;;;;;;;8.03;6.57;;;2.50;99.90;;;;;;4967425;28;20948;-50
2021/01/28 11:40:30;;;;;;;8.20;6.27;;;2.50;99.90;;;;;;4965573;28;20520;-48
2021/01/28 11:42:58;;;;;;;6.70;6.00;;;2.60;99.90;;;;;;4965216;28;20556;-48
2021/01/28 11:45:32;;;;;;;7.37;5.60;;;2.70;99.90;;;;;;4967375;28;20492;-49
2021/01/28 11:48:00;;;;;;;9.40;5.90;;;2.80;99.90;;;;;;4965238;28;21013;-49
2021/01/28 11:50:29;;;;;;;8.40;5.97;;;2.70;99.90;;;;;;4968378;28;20477;-50
2021/01/28 11:52:57;;;;;;;6.93;6.13;;;2.60;99.90;;;;;;4968350;28;20492;-48
2021/01/28 11:55:27;;;;;;;7.57;6.03;;;2.70;99.90;;;;;;4967834;28;20486;-48
2021/01/28 11:57:56;;;;;;;6.40;5.53;;;2.70;99.90;;;;;;4968203;28;20572;-51
2021/01/28 12:00:26;;;;;;;6.97;5.63;;;2.70;99.90;;;;;;4968113;28;20484;-48
2021/01/28 12:02:54;;;;;;;10.17;6.17;;;2.80;99.90;;;;;;4968494;28;20486;-48
2021/01/28 12:05:25;;;;;;;8.13;5.73;;;2.80;99.90;;;;;;4968574;28;20478;-48
2021/01/28 12:07:55;;;;;;;6.13;5.30;;;2.80;99.90;;;;;;4968886;28;20487;-48
2021/01/28 12:10:25;;;;;;;6.30;5.17;;;2.80;99.90;;;;;;4971879;28;20487;-48
2021/01/28 12:12:53;;;;;;;7.90;5.00;;;2.70;99.90;;;;;;4972516;28;20541;-48
2021/01/28 12:15:22;;;;;;;8.57;5.27;;;2.70;99.90;;;;;;4971739;28;20509;-48
2021/01/28 12:17:52;;;;;;;7.67;5.03;;;2.70;99.90;;;;;;4971436;28;20480;-48
2021/01/28 12:20:23;;;;;;;6.00;4.67;;;2.80;99.90;;;;;;4972098;28;20473;-49
2021/01/28 12:22:51;;;;;;;5.97;5.20;;;2.70;99.90;;;;;;4971655;28;20528;-49
2021/01/28 12:25:33;;;;;;;7.47;4.90;;;2.70;99.90;;;;;;4971103;28;20549;-48
2021/01/28 12:28:00;;;;;;;8.07;5.00;;;2.70;99.90;;;;;;4971355;28;20492;-49
2021/01/28 12:30:30;;;;;;;5.67;4.80;;;2.70;99.90;;;;;;4967220;28;20555;-50
2021/01/28 12:32:58;;;;;;;5.67;4.27;;;2.80;99.90;;;;;;4969558;28;20469;-49
2021/01/28 12:35:27;;;;;;;6.20;4.10;;;2.80;99.90;;;;;;4967241;28;21004;-50
2021/01/28 12:37:55;;;;;;;5.97;4.47;;;2.80;99.90;;;;;;4969763;28;20482;-49
2021/01/28 12:40:25;;;;;;;8.87;4.83;;;2.90;99.90;;;;;;4970578;28;21064;-51
2021/01/28 12:42:55;;;;;;;5.67;4.30;;;2.90;99.90;;;;;;4970173;28;20512;-48
2021/01/28 12:45:22;;;;;;;4.90;4.20;;;2.90;99.90;;;;;;4969791;28;21279;-49
2021/01/28 12:47:50;;;;;;;6.80;5.00;;;3.00;99.90;;;;;;4970806;28;20473;-49
2021/01/28 12:50:19;;;;;;;6.10;4.10;;;3.00;99.90;;;;;;4970775;28;20537;-50
2021/01/28 12:52:47;;;;;;;7.40;3.83;;;3.10;99.90;;;;;;4971058;28;20483;-48
2021/01/28 12:55:16;;;;;;;5.33;4.00;;;3.00;99.90;;;;;;4968459;28;20552;-51
2021/01/28 12:57:44;;;;;;;4.20;3.80;;;3.00;99.90;;;;;;4968990;28;20480;-49
2021/01/28 13:00:18;;;;;;;7.33;4.00;;;2.90;99.90;;;;;;4970305;28;20492;-48
2021/01/28 13:02:45;;;;;;;6.47;3.90;;;2.80;99.90;;;;;;4970480;28;20565;-49
2021/01/28 13:05:14;;;;;;;6.13;4.17;;;2.80;99.90;;;;;;4953002;28;20479;-49
2021/01/28 13:07:41;;;;;;;7.43;3.83;;;2.90;99.90;;;;;;4969763;28;20483;-49
2021/01/28 13:10:11;;;;;;;7.13;4.60;;;2.80;99.90;;;;;;4968318;28;21045;-49
2021/01/28 13:12:39;;;;;;;5.43;4.13;;;2.70;99.90;;;;;;4969486;28;20563;-50
2021/01/28 13:15:11;;;;;;;6.23;4.37;;;2.70;99.90;;;;;;4969258;28;21018;-49
2021/01/28 13:17:40;;;;;;;6.90;4.73;;;2.80;99.90;;;;;;4968710;28;21026;-49
2021/01/28 13:20:10;;;;;;;6.27;4.50;;;2.70;99.90;;;;;;4969394;28;20483;-50
2021/01/28 13:22:38;;;;;;;6.10;4.10;;;2.60;99.90;;;;;;4968334;28;20485;-49
2021/01/28 13:25:08;;;;;;;5.80;4.37;;;2.60;99.90;;;;;;4968756;28;21003;-51
2021/01/28 13:27:36;;;;;;;5.20;4.40;;;2.70;99.90;;;;;;4969289;28;20999;-50
2021/01/28 13:30:06;;;;;;;5.27;4.70;;;2.60;99.90;;;;;;4969266;28;20535;-49
2021/01/28 13:32:34;;;;;;;5.50;4.27;;;2.50;99.90;;;;;;4969075;28;20488;-53
2021/01/28 13:35:04;;;;;;;6.43;4.70;;;2.50;99.90;;;;;;4968482;28;20478;-51
2021/01/28 13:37:32;;;;;;;5.30;4.33;;;2.40;99.90;;;;;;4965960;28;20584;-49
2021/01/28 13:39:59;;;;;;;4.70;4.20;;;2.50;99.90;;;;;;4967212;28;20483;-49
2021/01/28 13:42:27;;;;;;;5.47;4.57;;;2.50;99.90;;;;;;4968297;28;20482;-50